createdAt,value
2018-09-21T00:02:13.182Z,99376.05
2018-09-21T00:05:16.136Z,99375.95
2018-09-21T00:08:19.069Z,99375.64
2018-09-21T00:11:21.996Z,99367.61
2018-09-21T00:14:24.886Z,99362.63
2018-09-21T00:17:27.861Z,99355.02
2018-09-21T00:20:30.817Z,99353.44
2018-09-21T00:23:33.736Z,99343.23
2018-09-21T00:26:36.669Z,99345.65
2018-09-21T00:29:39.605Z,99339.05
2018-09-21T00:32:42.564Z,99336.52
2018-09-21T00:35:45.508Z,99333.27
2018-09-21T00:38:48.461Z,99329.64
2018-09-21T00:41:51.440Z,99333.17
2018-09-21T00:44:54.393Z,99328.60
2018-09-21T00:47:57.314Z,99325.69
2018-09-21T00:51:00.272Z,99320.38
2018-09-21T00:54:03.282Z,99313.94
2018-09-21T00:57:06.183Z,99312.41
2018-09-21T01:00:09.133Z,99312.59
2018-09-21T01:03:12.063Z,99301.89
2018-09-21T01:06:15.001Z,99304.44
2018-09-21T01:09:17.913Z,99255.64
2018-09-21T01:12:20.877Z,99294.06
2018-09-21T01:15:23.832Z,99287.22
2018-09-21T01:18:26.788Z,99280.30
2018-09-21T01:21:29.733Z,99275.27
2018-09-21T01:24:32.700Z,99268.47
2018-09-21T01:27:35.626Z,99270.00
2018-09-21T01:30:38.549Z,99258.41
2018-09-21T01:33:41.501Z,99265.30
2018-09-21T01:36:44.374Z,99254.33
2018-09-21T01:39:47.321Z,99263.47
2018-09-21T01:42:50.281Z,99255.09
2018-09-21T01:45:53.199Z,99249.12
2018-09-21T01:48:56.119Z,99239.67
2018-09-21T01:51:59.060Z,99236.80
2018-09-21T01:55:02.042Z,99234.58
2018-09-21T01:58:04.946Z,99220.79
2018-09-21T02:01:07.865Z,99214.94
2018-09-21T02:04:10.786Z,99206.53
2018-09-21T02:07:13.744Z,99203.63
2018-09-21T02:10:16.660Z,99194.58
2018-09-21T02:13:19.633Z,99205.41
2018-09-21T02:16:22.673Z,99194.25
2018-09-21T02:19:25.662Z,99188.06
2018-09-21T02:22:28.634Z,99181.87
2018-09-21T02:25:31.556Z,99185.14
2018-09-21T02:28:34.492Z,99180.29
2018-09-21T02:31:37.403Z,99171.87
2018-09-21T02:34:40.282Z,99177.47
2018-09-21T02:37:43.157Z,99161.97
2018-09-21T02:40:46.129Z,99156.82
2018-09-21T02:43:49.258Z,99151.09
2018-09-21T02:46:52.172Z,99130.57
2018-09-21T02:49:55.081Z,99125.30
2018-09-21T02:52:58.015Z,99113.95
2018-09-21T02:56:00.950Z,99107.07
2018-09-21T02:59:04.031Z,99110.56
2018-09-21T03:02:06.914Z,99097.85
2018-09-21T03:05:09.906Z,99089.39
2018-09-21T03:08:12.844Z,99080.94
2018-09-21T03:11:15.837Z,99075.20
2018-09-21T03:14:18.749Z,99072.02
2018-09-21T03:17:21.629Z,99073.78
2018-09-21T03:23:32.924Z,99066.66
2018-09-21T03:26:35.845Z,99066.38
2018-09-21T03:29:38.808Z,99056.41
2018-09-21T03:32:41.749Z,99039.49
2018-09-21T03:35:44.700Z,99032.01
2018-09-21T03:38:47.622Z,99018.59
2018-09-21T03:41:50.592Z,99008.35
2018-09-21T03:44:53.492Z,98990.59
2018-09-21T03:47:56.487Z,98984.89
2018-09-21T03:50:59.452Z,98982.05
2018-09-21T03:54:02.330Z,98971.94
2018-09-21T03:57:05.314Z,98964.10
2018-09-21T04:00:08.652Z,98954.34
2018-09-21T04:03:11.607Z,98954.90
2018-09-21T04:06:14.496Z,98951.84
2018-09-21T04:09:17.500Z,98939.86
2018-09-21T04:12:20.433Z,98944.30
2018-09-21T04:15:23.371Z,98937.61
2018-09-21T04:18:26.293Z,98931.99
2018-09-21T04:21:29.233Z,98929.45
2018-09-21T04:24:32.139Z,98922.05
2018-09-21T04:27:35.148Z,98926.80
2018-09-21T04:30:38.097Z,98918.41
2018-09-21T04:33:41.013Z,98914.66
2018-09-21T04:36:43.930Z,98915.28
2018-09-21T04:39:46.830Z,98921.69
2018-09-21T04:42:50.168Z,98913.20
2018-09-21T04:45:53.252Z,98919.23
2018-09-21T04:48:56.189Z,98908.37
2018-09-21T04:51:59.086Z,98896.17
2018-09-21T04:55:02.014Z,98905.48
2018-09-21T04:58:04.894Z,98913.77
2018-09-21T05:01:07.861Z,98907.72
2018-09-21T05:04:10.798Z,98915.47
2018-09-21T05:07:13.776Z,98886.55
2018-09-21T05:10:16.706Z,98880.90
2018-09-21T05:13:19.646Z,98893.60
2018-09-21T05:16:22.566Z,98875.20
2018-09-21T05:19:25.525Z,98891.69
2018-09-21T05:22:28.452Z,98900.90
2018-09-21T05:25:31.410Z,98873.98
2018-09-21T05:28:34.321Z,98881.64
2018-09-21T05:31:37.267Z,98885.63
2018-09-21T05:34:40.364Z,98876.19
2018-09-21T05:37:43.139Z,98883.98
2018-09-21T05:40:45.991Z,98866.56
2018-09-21T05:43:48.917Z,98864.80
2018-09-21T05:46:51.849Z,98865.95
2018-09-21T05:49:55.281Z,98869.70
2018-09-21T05:52:58.728Z,98864.23
2018-09-21T05:56:02.184Z,98862.52
2018-09-21T05:59:05.990Z,98851.19
2018-09-21T06:02:09.404Z,98855.59
2018-09-21T06:05:12.414Z,98850.07
2018-09-21T06:08:15.373Z,98845.92
2018-09-21T06:11:18.279Z,98848.68
2018-09-21T06:14:21.536Z,98851.44
2018-09-21T06:17:24.472Z,98856.08
2018-09-21T06:20:28.021Z,98849.90
2018-09-21T06:23:30.983Z,98849.84
2018-09-21T06:26:33.932Z,98838.68
2018-09-21T06:29:36.816Z,98827.89
2018-09-21T06:32:39.757Z,98838.25
2018-09-21T06:35:43.232Z,98835.98
2018-09-21T06:38:46.161Z,98843.23
2018-09-21T06:41:49.077Z,98840.27
2018-09-21T06:44:52.259Z,98844.31
2018-09-21T06:47:55.788Z,98851.25
2018-09-21T06:50:58.662Z,98862.70
2018-09-21T06:54:01.595Z,98858.95
2018-09-21T06:57:04.505Z,98858.42
2018-09-21T07:00:07.561Z,98870.98
2018-09-21T07:03:10.474Z,98864.06
2018-09-21T07:06:13.526Z,98857.27
2018-09-21T07:09:16.469Z,98838.81
2018-09-21T07:12:19.408Z,98848.48
2018-09-21T07:15:22.325Z,98836.05
2018-09-21T07:18:25.267Z,98874.89
2018-09-21T07:21:28.720Z,98870.41
2018-09-21T07:24:31.669Z,98862.81
2018-09-21T07:27:34.638Z,98869.92
2018-09-21T07:30:37.725Z,98892.42
2018-09-21T07:33:40.697Z,98874.59
2018-09-21T07:36:43.610Z,98877.16
2018-09-21T07:39:46.549Z,98883.89
2018-09-21T07:42:49.538Z,98894.31
2018-09-21T07:45:52.425Z,98885.73
2018-09-21T07:48:55.326Z,98904.61
2018-09-21T07:51:58.270Z,98899.23
2018-09-21T07:55:01.710Z,98891.49
2018-09-21T07:58:04.696Z,98894.63
2018-09-21T08:01:07.917Z,98876.06
2018-09-21T08:04:11.355Z,98893.44
2018-09-21T08:07:14.344Z,98886.16
2018-09-21T08:10:17.614Z,98868.14
2018-09-21T08:13:20.630Z,98857.59
2018-09-21T08:16:23.573Z,98868.11
2018-09-21T08:19:26.527Z,98877.34
2018-09-21T08:22:29.421Z,98878.92
2018-09-21T08:25:32.804Z,98869.62
2018-09-21T08:28:36.441Z,98872.50
2018-09-21T08:31:39.434Z,98863.66
2018-09-21T08:34:42.722Z,98855.86
2018-09-21T08:37:46.232Z,98846.58
2018-09-21T08:40:49.620Z,98850.78
2018-09-21T08:43:52.868Z,98847.28
2018-09-21T08:46:55.774Z,98849.00
2018-09-21T08:49:58.706Z,98856.23
2018-09-21T08:53:01.729Z,98859.72
2018-09-21T08:56:05.537Z,98877.47
2018-09-21T08:59:08.542Z,98900.67
2018-09-21T09:02:11.426Z,98944.19
2018-09-21T09:05:14.944Z,98968.92
2018-09-21T09:08:17.918Z,99003.80
2018-09-21T09:11:20.817Z,99028.19
2018-09-21T09:14:23.878Z,99049.17
2018-09-21T09:17:26.826Z,99084.70
2018-09-21T09:20:29.756Z,99123.63
2018-09-21T09:23:32.695Z,99112.55
2018-09-21T09:26:36.126Z,99157.14
2018-09-21T09:29:39.138Z,99151.30
2018-09-21T09:32:42.080Z,99167.34
2018-09-21T09:35:45.559Z,99197.48
2018-09-21T09:38:48.987Z,99174.91
2018-09-21T09:41:52.348Z,99195.25
2018-09-21T09:44:55.773Z,99190.30
2018-09-21T09:47:58.733Z,99196.25
2018-09-21T09:51:01.690Z,99210.81
2018-09-21T09:54:04.701Z,99215.53
2018-09-21T09:57:08.109Z,99211.31
2018-09-21T10:00:11.041Z,99192.86
2018-09-21T10:03:13.930Z,99205.75
2018-09-21T10:06:17.417Z,99221.40
2018-09-21T10:09:20.360Z,99225.51
2018-09-21T10:12:23.397Z,99237.05
2018-09-21T10:15:26.400Z,99235.78
2018-09-21T10:18:29.965Z,99230.55
2018-09-21T10:21:32.913Z,99229.69
2018-09-21T10:24:36.035Z,99231.68
2018-09-21T10:27:39.069Z,99245.73
2018-09-21T10:30:42.009Z,99243.44
2018-09-21T10:33:45.094Z,99245.83
2018-09-21T10:36:47.905Z,99235.50
2018-09-21T10:39:50.874Z,99229.67
2018-09-21T10:42:53.930Z,99237.16
2018-09-21T10:45:57.347Z,99221.88
2018-09-21T10:49:00.718Z,99224.55
2018-09-21T10:52:03.802Z,99234.17
2018-09-21T10:55:06.753Z,99223.74
2018-09-21T10:58:09.678Z,99233.70
2018-09-21T11:01:13.094Z,99230.43
2018-09-21T11:04:16.037Z,99225.44
2018-09-21T11:07:19.467Z,99224.02
2018-09-21T11:10:22.408Z,99215.75
2018-09-21T11:13:25.377Z,99222.81
2018-09-21T11:16:28.979Z,99235.36
2018-09-21T11:19:31.968Z,99236.78
2018-09-21T11:22:35.486Z,99229.55
2018-09-21T11:25:38.441Z,99231.05
2018-09-21T11:28:41.346Z,99224.40
2018-09-21T11:31:44.296Z,99233.72
2018-09-21T11:34:47.590Z,99235.74
2018-09-21T11:37:51.111Z,99256.65
2018-09-21T11:40:54.227Z,99254.31
2018-09-21T11:43:57.184Z,99256.92
2018-09-21T11:47:00.139Z,99256.25
2018-09-21T11:50:03.128Z,99259.89
2018-09-21T11:53:06.175Z,99267.40
2018-09-21T11:56:09.150Z,99270.84
2018-09-21T11:59:12.218Z,99275.14
2018-09-21T12:02:15.161Z,99264.03
2018-09-21T12:05:18.750Z,99270.50
2018-09-21T12:08:22.173Z,99267.91
2018-09-21T12:11:25.108Z,99265.66
2018-09-21T12:14:28.230Z,99278.48
2018-09-21T12:17:31.195Z,99285.63
2018-09-21T12:20:34.989Z,99291.23
2018-09-21T12:23:38.060Z,99286.80
2018-09-21T12:26:41.551Z,99281.17
2018-09-21T12:29:44.512Z,99290.86
2018-09-21T12:32:47.412Z,99292.03
2018-09-21T12:35:50.563Z,99290.09
2018-09-21T12:38:53.488Z,99290.27
2018-09-21T12:41:57.048Z,99295.10
2018-09-21T12:44:59.965Z,99314.50
2018-09-21T12:48:02.966Z,99309.39
2018-09-21T12:51:05.973Z,99306.73
2018-09-21T12:54:09.016Z,99316.45
2018-09-21T12:57:11.959Z,99320.47
2018-09-21T13:00:15.666Z,99319.93
2018-09-21T13:03:19.096Z,99323.88
2018-09-21T13:06:22.178Z,99329.63
2018-09-21T13:09:25.043Z,99343.64
2018-09-21T13:12:28.703Z,99345.36
2018-09-21T13:15:32.235Z,99355.87
2018-09-21T13:18:35.381Z,99357.91
2018-09-21T13:21:38.313Z,99358.61
2018-09-21T13:24:41.232Z,99364.31
2018-09-21T13:27:44.614Z,99360.80
2018-09-21T13:30:47.545Z,99376.43
2018-09-21T13:33:50.489Z,99373.83
2018-09-21T13:36:53.400Z,99388.44
2018-09-21T13:39:56.326Z,99399.59
2018-09-21T13:42:59.856Z,99391.26
2018-09-21T13:46:02.834Z,99389.26
2018-09-21T13:49:05.841Z,99403.54
2018-09-21T13:52:08.780Z,99408.37
2018-09-21T13:55:11.703Z,99411.31
2018-09-21T13:58:15.091Z,99408.06
2018-09-21T14:01:18.692Z,99394.49
2018-09-21T14:04:22.383Z,99400.43
2018-09-21T14:07:26.073Z,99419.63
2018-09-21T14:10:29.666Z,99414.29
2018-09-21T14:13:32.583Z,99411.31
2018-09-21T14:16:35.490Z,99419.70
2018-09-21T14:19:38.453Z,99426.72
2018-09-21T14:22:41.935Z,99443.14
2018-09-21T14:25:45.379Z,99433.51
2018-09-21T14:28:49.115Z,99442.31
2018-09-21T14:31:52.197Z,99445.18
2018-09-21T14:34:55.851Z,99443.52
2018-09-21T14:37:58.888Z,99428.35
2018-09-21T14:41:01.817Z,99441.11
2018-09-21T14:44:04.904Z,99462.75
2018-09-21T14:47:08.235Z,99463.73
2018-09-21T14:50:11.763Z,99468.90
2018-09-21T14:53:15.246Z,99477.91
2018-09-21T14:59:20.581Z,99465.83
2018-09-21T15:02:23.528Z,99488.66
2018-09-21T15:05:26.464Z,99490.16
2018-09-21T15:08:29.465Z,99491.11
2018-09-21T15:11:32.421Z,99498.84
2018-09-21T15:14:35.360Z,99495.86
2018-09-21T15:17:38.341Z,99490.30
2018-09-21T15:20:41.284Z,99503.01
2018-09-21T15:23:44.783Z,99500.85
2018-09-21T15:26:47.726Z,99513.64
2018-09-21T15:29:52.802Z,99523.23
2018-09-21T15:32:55.750Z,99524.88
2018-09-21T15:35:58.851Z,99527.56
2018-09-21T15:39:01.849Z,99529.47
2018-09-21T15:42:04.770Z,99533.27
2018-09-21T15:45:09.611Z,99519.26
2018-09-21T15:48:12.514Z,99528.95
2018-09-21T15:51:15.569Z,99537.38
2018-09-21T15:54:18.584Z,99545.30
2018-09-21T15:57:21.585Z,99543.04
2018-09-21T16:00:24.486Z,99550.13
2018-09-21T16:03:27.853Z,99551.00
2018-09-21T16:06:32.867Z,99546.94
2018-09-21T16:09:36.313Z,99551.09
2018-09-21T16:12:39.273Z,99549.81
2018-09-21T16:15:42.174Z,99563.33
2018-09-21T16:18:45.611Z,99555.47
2018-09-21T16:21:48.607Z,99559.59
2018-09-21T16:24:51.540Z,99561.61
2018-09-21T16:27:54.991Z,99556.81
2018-09-21T16:30:57.940Z,99567.55
2018-09-21T16:34:00.878Z,99565.33
2018-09-21T16:37:04.513Z,99572.38
2018-09-21T16:40:07.453Z,99558.91
2018-09-21T16:43:10.357Z,99562.80
2018-09-21T16:46:13.933Z,99574.12
2018-09-21T16:49:16.904Z,99574.76
2018-09-21T16:52:19.875Z,99573.73
2018-09-21T16:55:22.764Z,99570.73
2018-09-21T16:58:26.337Z,99578.59
2018-09-21T17:01:29.306Z,99579.25
2018-09-21T17:04:32.314Z,99579.06
2018-09-21T17:07:35.214Z,99583.66
2018-09-21T17:10:38.181Z,99591.13
2018-09-21T17:13:41.115Z,99591.83
2018-09-21T17:16:44.093Z,99606.45
2018-09-21T17:19:47.664Z,99632.50
2018-09-21T17:22:50.605Z,99622.10
2018-09-21T17:25:53.678Z,99628.32
2018-09-21T17:28:56.672Z,99632.50
2018-09-21T17:31:59.648Z,99634.63
2018-09-21T17:35:04.549Z,99636.58
2018-09-21T17:38:08.049Z,99642.41
2018-09-21T17:41:11.100Z,99647.74
2018-09-21T17:44:14.053Z,99650.08
2018-09-21T17:47:17.546Z,99655.20
2018-09-21T17:50:20.493Z,99661.14
2018-09-21T17:53:23.437Z,99665.06
2018-09-21T17:56:26.370Z,99663.80
2018-09-21T17:59:29.314Z,99670.94
2018-09-21T18:02:32.824Z,99674.88
2018-09-21T18:05:35.782Z,99680.17
2018-09-21T18:08:38.675Z,99686.13
2018-09-21T18:11:41.555Z,99690.34
2018-09-21T18:14:45.084Z,99699.30
2018-09-21T18:17:48.104Z,99706.85
2018-09-21T18:20:51.041Z,99714.55
2018-09-21T18:23:53.965Z,99710.73
2018-09-21T18:26:56.938Z,99713.28
2018-09-21T18:29:59.857Z,99702.94
2018-09-21T18:33:02.840Z,99700.97
2018-09-21T18:36:05.837Z,99710.61
2018-09-21T18:39:09.450Z,99715.30
2018-09-21T18:42:12.416Z,99728.33
2018-09-21T18:45:15.460Z,99728.39
2018-09-21T18:48:18.960Z,99753.55
2018-09-21T18:51:21.915Z,99761.11
2018-09-21T18:54:24.805Z,99775.69
2018-09-21T18:57:28.297Z,99785.98
2018-09-21T19:00:31.875Z,99778.95
2018-09-21T19:03:35.540Z,99773.75
2018-09-21T19:06:38.500Z,99784.00
2018-09-21T19:09:41.441Z,99793.70
2018-09-21T19:12:44.372Z,99791.75
2018-09-21T19:15:47.293Z,99796.28
2018-09-21T19:18:50.347Z,99802.50
2018-09-21T19:21:53.201Z,99808.66
2018-09-21T19:24:56.158Z,99807.31
2018-09-21T19:27:59.651Z,99803.33
2018-09-21T19:31:03.165Z,99817.69
2018-09-21T19:34:06.184Z,99825.48
2018-09-21T19:37:09.199Z,99824.30
2018-09-21T19:40:12.150Z,99822.48
2018-09-21T19:43:15.797Z,99832.78
2018-09-21T19:46:18.810Z,99826.66
2018-09-21T19:49:21.757Z,99828.03
2018-09-21T19:52:24.702Z,99830.73
2018-09-21T19:55:28.288Z,99841.85
2018-09-21T19:58:31.249Z,99843.41
2018-09-21T20:01:34.160Z,99833.02
2018-09-21T20:04:37.682Z,99831.75
2018-09-21T20:07:41.573Z,99835.92
2018-09-21T20:10:45.031Z,99843.61
2018-09-21T20:13:47.945Z,99845.51
2018-09-21T20:16:50.814Z,99847.86
2018-09-21T20:19:53.781Z,99862.81
2018-09-21T20:22:56.777Z,99866.30
2018-09-21T20:25:59.681Z,99870.92
2018-09-21T20:29:02.674Z,99885.69
2018-09-21T20:32:11.616Z,99891.58
2018-09-21T20:35:15.109Z,99874.91
2018-09-21T20:38:18.110Z,99878.69
2018-09-21T20:41:21.892Z,99887.41
2018-09-21T20:44:24.876Z,99882.23
2018-09-21T20:47:27.792Z,99886.34
2018-09-21T20:50:31.231Z,99901.39
2018-09-21T20:53:34.142Z,99914.98
2018-09-21T20:56:37.070Z,99897.55
2018-09-21T20:59:39.985Z,99908.81
2018-09-21T21:02:42.893Z,99913.69
2018-09-21T21:05:46.396Z,99913.75
2018-09-21T21:08:49.834Z,99911.31
2018-09-21T21:11:52.801Z,99903.77
2018-09-21T21:14:55.777Z,99911.60
2018-09-21T21:17:58.708Z,99909.00
2018-09-21T21:21:01.637Z,99912.09
2018-09-21T21:24:04.559Z,99914.28
2018-09-21T21:27:07.493Z,99924.67
2018-09-21T21:30:10.401Z,99933.05
2018-09-21T21:33:13.317Z,99935.31
2018-09-21T21:36:16.896Z,99940.06
2018-09-21T21:39:20.271Z,99938.43
2018-09-21T21:42:23.228Z,99956.02
2018-09-21T21:45:26.254Z,99954.16
2018-09-21T21:48:29.177Z,99961.64
2018-09-21T21:51:32.148Z,99970.37
2018-09-21T21:54:35.050Z,99984.77
2018-09-21T21:57:37.995Z,99981.80
2018-09-21T22:00:46.572Z,99991.70
2018-09-21T22:03:49.527Z,99995.58
2018-09-21T22:06:52.476Z,100000.70
2018-09-21T22:09:55.421Z,99991.61
2018-09-21T22:13:03.878Z,99999.04
2018-09-21T22:16:06.769Z,100003.93
2018-09-21T22:19:10.154Z,100016.83
2018-09-21T22:22:13.080Z,100012.09
2018-09-21T22:25:16.017Z,100017.23
2018-09-21T22:28:18.995Z,100019.67
2018-09-21T22:31:21.920Z,100013.17
2018-09-21T22:34:24.861Z,100017.58
2018-09-21T22:37:28.201Z,100020.05
2018-09-21T22:40:31.164Z,100019.65
2018-09-21T22:43:34.097Z,100026.93
2018-09-21T22:46:37.018Z,100029.99
2018-09-21T22:49:39.936Z,100037.69
2018-09-21T22:52:42.919Z,100030.27
2018-09-21T22:55:45.813Z,100039.42
2018-09-21T22:58:48.745Z,100047.34
2018-09-21T23:01:51.705Z,100093.83
2018-09-21T23:04:54.634Z,100056.73
2018-09-21T23:07:57.649Z,100053.81
2018-09-21T23:11:00.565Z,100068.67
2018-09-21T23:14:03.481Z,100071.55
2018-09-21T23:17:06.441Z,100054.88
2018-09-21T23:20:09.457Z,100068.16
2018-09-21T23:23:12.419Z,100073.97
2018-09-21T23:26:15.360Z,100073.09
2018-09-21T23:29:18.278Z,100076.69
2018-09-21T23:32:21.189Z,100081.02
2018-09-21T23:35:24.172Z,100092.19
2018-09-21T23:38:27.059Z,100105.23
2018-09-21T23:41:30.017Z,100119.48
2018-09-21T23:44:32.913Z,100124.31
2018-09-21T23:47:35.821Z,100121.90
2018-09-21T23:50:38.756Z,100120.86
2018-09-21T23:53:41.660Z,100126.98
2018-09-21T23:56:44.566Z,100118.76
2018-09-21T23:59:47.478Z,100135.79
